createdAt,value
2023-04-30T00:01:19.673Z,3.43
2023-04-30T00:18:16.851Z,3.77
2023-04-30T00:21:31.925Z,4.01
2023-04-30T00:24:57.994Z,3.99
2023-04-30T00:28:26.529Z,4.00
2023-04-30T00:32:11.614Z,3.82
2023-04-30T00:35:07.809Z,3.68
2023-04-30T00:41:53.713Z,3.57
2023-04-30T00:48:23.219Z,3.75
2023-04-30T00:55:05.069Z,3.74
2023-04-30T01:02:06.521Z,3.73
2023-04-30T01:23:15.683Z,4.25
2023-04-30T01:33:05.433Z,4.68
2023-04-30T01:36:07.442Z,4.71
2023-04-30T01:39:24.997Z,4.64
2023-04-30T01:42:48.179Z,4.57
2023-04-30T01:52:29.905Z,4.64
2023-04-30T01:55:49.195Z,4.56
2023-04-30T01:59:52.513Z,4.18
2023-04-30T02:06:03.267Z,4.48
2023-04-30T02:09:24.090Z,4.39
2023-04-30T02:12:29.680Z,4.25
2023-04-30T02:19:07.967Z,4.45
2023-04-30T02:25:31.331Z,4.30
2023-04-30T02:28:40.901Z,4.74
2023-04-30T02:31:46.440Z,4.67
2023-04-30T02:34:53.887Z,4.40
2023-04-30T02:41:27.660Z,4.30
2023-04-30T02:44:34.110Z,4.24
2023-04-30T02:47:40.956Z,4.19
2023-04-30T02:50:45.167Z,4.41
2023-04-30T02:53:49.742Z,4.40
2023-04-30T02:56:58.775Z,4.30
2023-04-30T03:00:04.108Z,4.19
2023-04-30T03:03:17.639Z,4.07
2023-04-30T03:06:48.216Z,4.18
2023-04-30T03:10:07.217Z,4.27
2023-04-30T03:13:26.919Z,4.13
2023-04-30T03:20:18.473Z,3.99
2023-04-30T03:23:53.909Z,4.05
2023-04-30T03:27:19.180Z,4.34
2023-04-30T03:30:23.498Z,3.99
2023-04-30T03:36:51.551Z,4.09
2023-04-30T03:43:20.779Z,4.26
2023-04-30T03:46:28.548Z,4.04
2023-04-30T03:49:35.269Z,4.46
2023-04-30T03:53:26.772Z,4.57
2023-04-30T03:59:23.109Z,4.80
2023-04-30T04:02:35.155Z,4.75
2023-04-30T04:05:51.888Z,4.62
2023-04-30T04:09:00.371Z,4.69
2023-04-30T04:12:16.366Z,4.57
2023-04-30T04:18:51.195Z,4.92
2023-04-30T04:21:55.723Z,4.70
2023-04-30T04:28:36.758Z,4.90
2023-04-30T04:31:43.090Z,4.89
2023-04-30T04:41:38.557Z,4.24
2023-04-30T04:45:18.754Z,4.52
2023-04-30T04:48:17.496Z,4.40
2023-04-30T04:52:04.469Z,5.25
2023-04-30T04:55:01.003Z,5.28
2023-04-30T04:58:15.506Z,4.94
2023-04-30T05:08:05.154Z,5.41
2023-04-30T05:14:35.641Z,5.74
2023-04-30T05:21:00.549Z,5.49
2023-04-30T05:27:24.650Z,5.06
2023-04-30T05:30:33.336Z,4.83
2023-04-30T05:33:42.956Z,5.20
2023-04-30T05:37:06.050Z,5.35
2023-04-30T05:40:11.231Z,5.28
2023-04-30T05:43:15.037Z,5.35
2023-04-30T05:46:19.005Z,5.48
2023-04-30T05:49:22.994Z,5.43
2023-04-30T05:52:26.876Z,5.41
2023-04-30T05:55:30.594Z,5.15
2023-04-30T05:58:34.412Z,5.21
2023-04-30T06:01:38.400Z,5.39
2023-04-30T06:04:42.525Z,5.66
2023-04-30T06:07:46.779Z,5.38
2023-04-30T06:10:50.581Z,5.66
2023-04-30T06:13:54.530Z,5.49
2023-04-30T06:16:58.642Z,5.70
2023-04-30T06:20:02.736Z,5.49
2023-04-30T06:23:06.488Z,5.60
2023-04-30T06:26:10.477Z,5.32
2023-04-30T06:29:14.192Z,4.90
2023-04-30T06:32:18.396Z,5.13
2023-04-30T06:35:23.410Z,5.13
2023-04-30T06:38:27.110Z,5.04
2023-04-30T06:41:31.092Z,5.71
2023-04-30T06:44:35.070Z,5.78
2023-04-30T06:47:39.368Z,5.53
2023-04-30T06:50:43.855Z,5.50
2023-04-30T06:53:50.094Z,5.18
2023-04-30T06:56:54.242Z,5.20
2023-04-30T07:00:02.739Z,5.61
2023-04-30T07:03:07.293Z,5.46
2023-04-30T07:06:12.469Z,5.27
2023-04-30T07:12:42.652Z,4.77
2023-04-30T07:15:48.680Z,5.13
2023-04-30T07:18:52.972Z,5.14
2023-04-30T07:22:30.754Z,5.67
2023-04-30T07:39:35.662Z,4.97
2023-04-30T07:43:03.894Z,5.67
2023-04-30T07:46:07.874Z,5.78
2023-04-30T07:49:35.141Z,5.70
2023-04-30T07:52:50.930Z,5.45
2023-04-30T07:55:56.326Z,5.12
2023-04-30T09:08:40.534Z,5.16
2023-04-30T09:19:13.527Z,5.20
2023-04-30T09:22:22.706Z,5.21
2023-04-30T09:28:52.417Z,5.76
2023-04-30T09:32:01.257Z,5.43
2023-04-30T09:35:16.199Z,5.52
2023-04-30T09:38:23.286Z,5.76
2023-04-30T09:41:27.315Z,5.73
2023-04-30T09:44:32.643Z,5.70
2023-04-30T09:47:38.590Z,5.35
2023-04-30T09:50:43.553Z,5.53
2023-04-30T09:53:48.091Z,5.96
2023-04-30T09:56:51.884Z,5.67
2023-04-30T09:59:56.364Z,5.67
2023-04-30T10:03:00.596Z,5.77
2023-04-30T10:06:04.631Z,5.93
2023-04-30T10:09:11.949Z,6.01
2023-04-30T10:12:16.214Z,5.73
2023-04-30T10:15:20.091Z,5.71
2023-04-30T10:18:29.930Z,5.39
2023-04-30T10:21:36.933Z,5.47
2023-04-30T10:24:40.958Z,5.47
2023-04-30T10:27:44.877Z,5.61
2023-04-30T10:30:50.607Z,5.72
2023-04-30T10:33:54.979Z,6.05
2023-04-30T10:36:59.132Z,6.34
2023-04-30T10:40:04.412Z,6.27
2023-04-30T10:43:09.944Z,7.05
2023-04-30T10:46:14.358Z,6.58
2023-04-30T10:49:19.657Z,6.85
2023-04-30T10:52:24.050Z,6.75
2023-04-30T10:55:27.963Z,6.34
2023-04-30T10:58:31.741Z,6.80
2023-04-30T11:01:36.904Z,6.98
2023-04-30T11:04:41.344Z,6.79
2023-04-30T11:07:45.262Z,7.03
2023-04-30T11:10:50.504Z,6.80
2023-04-30T11:13:57.665Z,6.81
2023-04-30T11:17:01.751Z,8.08
2023-04-30T11:20:06.799Z,7.26
2023-04-30T11:23:17.401Z,6.91
2023-04-30T11:26:29.085Z,6.49
2023-04-30T11:29:33.114Z,6.57
2023-04-30T11:32:37.207Z,7.51
2023-04-30T11:35:41.474Z,6.55
2023-04-30T11:38:45.632Z,6.35
2023-04-30T11:41:49.845Z,6.64
2023-04-30T11:44:53.490Z,6.42
2023-04-30T11:48:00.085Z,6.44
2023-04-30T11:51:04.256Z,6.41
2023-04-30T11:54:12.778Z,6.19
2023-04-30T12:00:45.376Z,6.20
2023-04-30T12:03:49.567Z,6.04
2023-04-30T12:06:54.077Z,6.09
2023-04-30T12:09:58.209Z,6.36
2023-04-30T12:13:02.353Z,6.40
2023-04-30T12:16:06.336Z,6.37
2023-04-30T12:19:11.677Z,6.61
2023-04-30T12:22:20.488Z,6.45
2023-04-30T12:25:24.544Z,6.47
2023-04-30T12:28:30.424Z,6.39
2023-04-30T12:31:34.620Z,6.97
2023-04-30T12:34:38.444Z,6.50
2023-04-30T12:37:42.560Z,6.49
2023-04-30T12:40:49.029Z,6.69
2023-04-30T12:44:03.676Z,6.74
2023-04-30T12:47:12.167Z,6.82
2023-04-30T12:50:16.390Z,6.34
2023-04-30T12:53:21.455Z,6.71
2023-04-30T12:56:25.695Z,6.47
2023-04-30T12:59:29.528Z,6.87
2023-04-30T13:02:33.476Z,6.13
2023-04-30T13:05:37.204Z,6.28
2023-04-30T13:08:56.185Z,6.66
2023-04-30T13:12:01.633Z,6.74
2023-04-30T13:15:06.247Z,6.29
2023-04-30T13:18:10.472Z,6.46
2023-04-30T13:21:14.536Z,6.57
2023-04-30T13:24:18.915Z,6.52
2023-04-30T13:27:23.844Z,6.50
2023-04-30T13:30:28.037Z,6.67
2023-04-30T13:33:33.498Z,6.55
2023-04-30T13:36:37.691Z,6.57
2023-04-30T13:39:41.402Z,5.83
2023-04-30T13:42:45.342Z,5.85
2023-04-30T13:45:49.355Z,6.08
2023-04-30T13:49:03.936Z,5.99
2023-04-30T13:52:09.367Z,6.07
2023-04-30T13:55:13.567Z,6.48
2023-04-30T13:58:17.716Z,6.23
2023-04-30T14:01:21.641Z,6.60
2023-04-30T14:04:25.715Z,6.65
2023-04-30T14:07:29.922Z,6.75
2023-04-30T14:10:33.809Z,6.73
2023-04-30T14:13:37.957Z,6.42
2023-04-30T14:16:41.681Z,6.37
2023-04-30T14:19:45.908Z,6.21
2023-04-30T14:22:49.918Z,6.17
2023-04-30T14:25:53.953Z,5.96
2023-04-30T14:28:58.967Z,5.98
2023-04-30T14:32:02.918Z,6.34
2023-04-30T14:35:07.016Z,6.69
2023-04-30T14:38:18.559Z,6.39
2023-04-30T14:41:22.744Z,5.83
2023-04-30T14:44:27.030Z,6.00
2023-04-30T14:47:33.736Z,6.10
2023-04-30T14:50:40.361Z,5.64
2023-04-30T14:53:45.671Z,5.92
2023-04-30T14:56:49.776Z,5.88
2023-04-30T14:59:54.457Z,5.34
2023-04-30T15:02:58.538Z,5.65
2023-04-30T15:06:03.131Z,5.53
2023-04-30T15:09:07.198Z,5.71
2023-04-30T15:12:11.424Z,5.83
2023-04-30T15:15:16.790Z,20.28
2023-04-30T15:18:22.973Z,10.19
2023-04-30T15:21:28.573Z,7.62
2023-04-30T15:24:32.771Z,9.73
2023-04-30T15:27:36.811Z,8.82
2023-04-30T15:30:40.809Z,9.48
2023-04-30T15:33:45.263Z,4.01
2023-04-30T15:36:49.211Z,6.23
2023-04-30T15:39:53.538Z,4.24
2023-04-30T15:43:00.879Z,4.46
2023-04-30T15:46:04.865Z,3.40
2023-04-30T15:49:09.083Z,2.36
2023-04-30T15:52:14.358Z,1.67
2023-04-30T15:55:20.226Z,0.55
2023-04-30T15:58:24.345Z,0.88
2023-04-30T16:01:29.514Z,0.74
2023-04-30T16:04:34.789Z,0.73
2023-04-30T16:07:38.716Z,0.83
2023-04-30T16:10:45.702Z,0.77
2023-04-30T16:13:50.016Z,0.69
2023-04-30T16:16:54.085Z,0.61
2023-04-30T16:19:58.646Z,0.66
2023-04-30T16:23:03.023Z,0.84
2023-04-30T16:26:08.825Z,0.65
2023-04-30T16:29:12.822Z,0.62
2023-04-30T16:32:16.877Z,0.77
2023-04-30T16:35:21.583Z,0.61
2023-04-30T16:38:25.623Z,0.61
2023-04-30T16:41:29.520Z,0.81
2023-04-30T16:44:33.360Z,0.81
2023-04-30T16:47:39.736Z,1.05
2023-04-30T16:50:47.377Z,0.77
2023-04-30T16:53:51.924Z,0.63
2023-04-30T16:56:57.070Z,0.79
2023-04-30T17:00:03.217Z,0.79
2023-04-30T17:03:11.756Z,1.06
2023-04-30T17:06:44.908Z,0.77
2023-04-30T17:09:59.113Z,0.67
2023-04-30T17:13:11.466Z,0.70
2023-04-30T17:16:16.120Z,0.71
2023-04-30T17:22:49.395Z,1.04
2023-04-30T17:25:53.402Z,0.91
2023-04-30T17:28:57.771Z,1.02
2023-04-30T17:32:22.629Z,0.76
2023-04-30T17:35:28.563Z,0.91
2023-04-30T17:38:33.926Z,0.65
2023-04-30T17:44:59.951Z,0.73
2023-04-30T17:48:04.074Z,0.94
2023-04-30T17:51:41.478Z,0.84
2023-04-30T17:54:35.618Z,0.87
2023-04-30T17:57:41.077Z,0.79
2023-04-30T18:00:49.641Z,0.78
2023-04-30T18:03:55.312Z,0.68
2023-04-30T18:07:02.161Z,0.73
2023-04-30T18:10:06.134Z,0.71
2023-04-30T18:13:10.036Z,0.77
2023-04-30T18:16:14.152Z,0.77
2023-04-30T18:19:18.540Z,0.79
2023-04-30T18:22:26.267Z,0.68
2023-04-30T18:25:31.813Z,0.83
2023-04-30T18:28:42.083Z,0.80
2023-04-30T18:31:52.761Z,0.68
2023-04-30T18:34:57.935Z,0.77
2023-04-30T18:38:02.191Z,0.90
2023-04-30T18:41:06.238Z,0.73
2023-04-30T18:47:34.379Z,0.96
2023-04-30T18:50:43.336Z,0.69
2023-04-30T18:53:48.828Z,0.74
2023-04-30T18:56:52.926Z,0.74
2023-04-30T19:00:43.933Z,0.63
2023-04-30T19:03:22.838Z,0.79
2023-04-30T19:07:20.796Z,0.66
2023-04-30T19:10:05.128Z,0.85
2023-04-30T19:13:09.375Z,0.76
2023-04-30T19:16:13.541Z,0.71
2023-04-30T19:19:17.347Z,0.73
2023-04-30T19:22:21.145Z,0.70
2023-04-30T19:25:27.241Z,0.69
2023-04-30T19:28:32.706Z,0.80
2023-04-30T19:31:36.980Z,0.68
2023-04-30T19:34:42.356Z,0.90
2023-04-30T19:37:46.300Z,0.81
2023-04-30T19:40:50.465Z,0.83
2023-04-30T19:43:59.231Z,0.87
2023-04-30T19:47:03.474Z,0.87
2023-04-30T19:50:12.063Z,1.35
2023-04-30T19:53:16.396Z,0.79
2023-04-30T19:56:20.289Z,1.01
2023-04-30T19:59:24.179Z,0.83
2023-04-30T20:02:28.218Z,0.94
2023-04-30T20:05:32.844Z,0.91
2023-04-30T20:08:37.260Z,0.91
2023-04-30T20:11:41.081Z,0.95
2023-04-30T20:14:46.280Z,0.76
2023-04-30T20:17:52.616Z,0.75
2023-04-30T20:20:56.611Z,0.66
2023-04-30T20:24:00.762Z,0.63
2023-04-30T20:27:05.675Z,0.69
2023-04-30T20:30:10.091Z,0.72
2023-04-30T20:33:14.002Z,0.69
2023-04-30T20:36:17.910Z,0.76
2023-04-30T20:39:21.911Z,0.79
2023-04-30T20:42:27.355Z,0.79
2023-04-30T20:45:31.707Z,0.63
2023-04-30T20:48:35.663Z,0.83
2023-04-30T20:51:41.381Z,0.71
2023-04-30T20:54:45.828Z,0.65
2023-04-30T20:57:49.767Z,0.86
2023-04-30T21:00:56.602Z,0.83
2023-04-30T21:04:03.638Z,1.11
2023-04-30T21:07:07.701Z,0.81
2023-04-30T21:10:11.420Z,0.78
2023-04-30T21:13:16.782Z,0.94
2023-04-30T21:16:22.439Z,0.79
2023-04-30T21:19:26.712Z,0.90
2023-04-30T21:22:30.673Z,0.96
2023-04-30T21:25:35.929Z,0.95
2023-04-30T21:28:40.133Z,0.86
2023-04-30T21:31:43.948Z,0.83
2023-04-30T21:34:48.209Z,0.84
2023-04-30T21:37:52.451Z,0.95
2023-04-30T23:54:44.309Z,0.98
2023-04-30T23:57:50.596Z,0.83
